Time;durP1;ratioP1;P1;durP2;ratioP2;P2;SDS_P1;SDS_P2;PMS_P1;PMS_P2;Temp;Humidity;BMP_temperature;BMP_pressure;BME280_temperature;BME280_humidity;BME280_pressure;Samples;Min_cycle;Max_cycle;Signal;HPM_P1;HPM_P2
2022/02/20 00:01:11;;;;;;;8.18;2.78;;;5.80;99.90;;;;;;5072426;28;20036;-68
2022/02/20 00:03:38;;;;;;;4.68;2.25;;;5.90;99.90;;;;;;5072637;28;20131;-67
2022/02/20 00:06:04;;;;;;;9.05;2.50;;;5.90;99.90;;;;;;5073278;28;20556;-68
2022/02/20 00:08:29;;;;;;;7.03;2.10;;;5.90;99.90;;;;;;5069953;28;20060;-68
2022/02/20 00:10:55;;;;;;;8.02;2.33;;;5.90;99.90;;;;;;5067455;28;20098;-67
2022/02/20 00:13:21;;;;;;;15.02;3.33;;;6.00;99.90;;;;;;5070834;28;20032;-67
2022/02/20 00:15:47;;;;;;;13.45;2.47;;;6.00;99.90;;;;;;5069632;28;20090;-67
2022/02/20 00:18:12;;;;;;;8.60;2.38;;;6.00;99.90;;;;;;5070690;28;20549;-67
2022/02/20 00:20:38;;;;;;;8.10;1.95;;;6.00;99.90;;;;;;5069356;28;20032;-67
2022/02/20 00:23:05;;;;;;;8.65;2.40;;;5.90;99.90;;;;;;5068262;28;20079;-67
2022/02/20 00:25:31;;;;;;;12.30;3.10;;;6.00;99.90;;;;;;5072666;28;20091;-67
2022/02/20 00:28:01;;;;;;;7.90;2.70;;;6.00;99.90;;;;;;5098642;28;20053;-67
2022/02/20 00:30:27;;;;;;;10.55;3.78;;;5.90;99.90;;;;;;5071123;28;20127;-67
2022/02/20 00:32:54;;;;;;;6.13;3.45;;;6.00;99.90;;;;;;5098323;28;20119;-67
2022/02/20 00:35:20;;;;;;;6.25;4.40;;;5.90;99.90;;;;;;5098048;28;20110;-67
2022/02/20 00:37:45;;;;;;;6.72;4.32;;;5.90;99.90;;;;;;5067727;28;20036;-67
2022/02/20 00:40:11;;;;;;;6.40;4.53;;;5.80;99.90;;;;;;5072194;28;20040;-67
2022/02/20 00:42:36;;;;;;;4.30;3.42;;;5.70;99.90;;;;;;5068233;28;20090;-67
2022/02/20 00:45:02;;;;;;;4.32;3.67;;;5.60;99.90;;;;;;5049083;28;20115;-67
2022/02/20 00:47:28;;;;;;;7.50;4.50;;;5.50;99.90;;;;;;5067741;28;20205;-67
2022/02/20 00:49:54;;;;;;;5.50;4.07;;;5.50;99.90;;;;;;5067790;28;20048;-67
2022/02/20 00:52:19;;;;;;;4.40;4.00;;;5.40;99.90;;;;;;5069449;28;20028;-67
2022/02/20 00:54:45;;;;;;;6.22;3.92;;;5.30;99.90;;;;;;5067282;28;20040;-67
2022/02/20 00:57:10;;;;;;;5.38;4.55;;;5.20;99.90;;;;;;5068033;28;20070;-67
2022/02/20 00:59:36;;;;;;;5.10;4.60;;;5.20;99.90;;;;;;5071519;28;20028;-67
2022/02/20 01:02:01;;;;;;;4.45;4.15;;;5.10;99.90;;;;;;5068937;28;20035;-67
2022/02/20 01:04:27;;;;;;;5.18;4.50;;;5.00;99.90;;;;;;5084262;28;20036;-67
2022/02/20 01:06:54;;;;;;;5.10;4.60;;;5.00;99.90;;;;;;5094300;28;20049;-67
2022/02/20 01:09:20;;;;;;;4.90;3.97;;;5.00;99.90;;;;;;5065462;28;20511;-67
2022/02/20 01:11:46;;;;;;;3.95;3.40;;;4.90;99.90;;;;;;5067223;28;20040;-67
2022/02/20 01:14:11;;;;;;;4.40;4.10;;;4.90;99.90;;;;;;5067039;28;20085;-67
2022/02/20 01:16:39;;;;;;;4.45;3.33;;;4.80;99.90;;;;;;5066439;28;20041;-67
2022/02/20 01:19:04;;;;;;;3.70;3.40;;;4.80;99.90;;;;;;5070917;28;20078;-67
2022/02/20 01:21:30;;;;;;;3.42;3.00;;;4.70;99.90;;;;;;5065138;28;20080;-67
2022/02/20 01:23:55;;;;;;;3.45;3.03;;;4.60;99.90;;;;;;5067594;28;20036;-67
2022/02/20 01:26:21;;;;;;;3.33;3.03;;;4.60;99.90;;;;;;5066654;28;20133;-67
2022/02/20 01:28:47;;;;;;;3.10;2.80;;;4.40;99.90;;;;;;5066928;28;20049;-67
2022/02/20 01:31:12;;;;;;;3.10;2.30;;;4.30;99.90;;;;;;5068833;28;20039;-67
2022/02/20 01:33:38;;;;;;;2.83;2.63;;;4.30;99.90;;;;;;5067079;28;20044;-67
2022/02/20 01:36:04;;;;;;;2.60;2.40;;;4.20;99.90;;;;;;5077105;28;20036;-67
2022/02/20 01:38:30;;;;;;;4.35;2.45;;;4.20;99.90;;;;;;5071455;28;21044;-67
2022/02/20 01:40:56;;;;;;;2.45;2.22;;;4.10;99.90;;;;;;5071345;28;20033;-67
2022/02/20 01:43:22;;;;;;;2.63;2.22;;;4.10;99.90;;;;;;5075369;28;20115;-67
2022/02/20 01:45:48;;;;;;;2.17;1.98;;;4.10;99.90;;;;;;5069938;28;20032;-67
2022/02/20 01:48:14;;;;;;;3.25;1.88;;;4.00;99.90;;;;;;5071629;28;20487;-67
2022/02/20 01:50:39;;;;;;;3.30;2.10;;;4.00;99.90;;;;;;5068521;28;20059;-67
2022/02/20 01:53:05;;;;;;;2.72;1.90;;;4.00;99.90;;;;;;5072255;28;20398;-67
2022/02/20 01:55:31;;;;;;;4.25;1.77;;;4.00;99.90;;;;;;5069245;28;20040;-67
2022/02/20 01:57:57;;;;;;;2.60;1.85;;;4.00;99.90;;;;;;5072463;28;20043;-67
2022/02/20 02:00:24;;;;;;;4.82;1.77;;;4.00;99.90;;;;;;5102479;28;20040;-67
2022/02/20 02:02:49;;;;;;;3.08;2.10;;;4.00;99.90;;;;;;5070887;28;20050;-67
2022/02/20 02:05:15;;;;;;;2.78;1.60;;;4.00;99.90;;;;;;5070559;28;20382;-67
2022/02/20 02:07:41;;;;;;;5.47;2.60;;;4.00;99.90;;;;;;5073252;28;20044;-67
2022/02/20 02:10:07;;;;;;;2.90;2.03;;;4.10;99.90;;;;;;5068774;28;20043;-69
2022/02/20 02:12:35;;;;;;;4.80;1.77;;;4.10;99.90;;;;;;5069786;28;20036;-68
2022/02/20 02:15:09;;;;;;;2.00;1.67;;;4.10;99.90;;;;;;5067573;28;20123;-67
2022/02/20 02:17:35;;;;;;;1.98;1.65;;;4.10;99.90;;;;;;5069480;28;20556;-67
2022/02/20 02:20:02;;;;;;;2.53;1.42;;;4.10;99.90;;;;;;5069903;28;20134;-67
2022/02/20 02:22:29;;;;;;;1.75;1.40;;;4.00;99.90;;;;;;5069670;28;20044;-67
2022/02/20 02:24:56;;;;;;;1.77;1.60;;;4.10;99.90;;;;;;5068087;28;20502;-67
2022/02/20 02:27:22;;;;;;;3.00;1.40;;;4.10;99.90;;;;;;5069386;28;20036;-67
2022/02/20 02:29:48;;;;;;;1.90;1.25;;;4.10;99.90;;;;;;5071663;28;20052;-67
2022/02/20 02:32:14;;;;;;;1.73;1.33;;;4.10;99.90;;;;;;5067550;28;20131;-67
2022/02/20 02:34:41;;;;;;;1.65;1.48;;;4.10;99.90;;;;;;5068556;28;20398;-67
2022/02/20 02:37:07;;;;;;;1.45;1.35;;;4.20;99.90;;;;;;5066985;28;20086;-67
2022/02/20 02:39:33;;;;;;;3.80;1.60;;;4.20;99.90;;;;;;5096885;28;20048;-67
2022/02/20 02:41:59;;;;;;;1.80;1.70;;;4.20;99.90;;;;;;5070343;28;20413;-67
2022/02/20 02:44:25;;;;;;;2.00;1.52;;;4.20;99.90;;;;;;5070721;28;20119;-67
2022/02/20 02:46:50;;;;;;;1.60;1.50;;;4.20;99.90;;;;;;5100872;28;20127;-67
2022/02/20 02:49:16;;;;;;;1.98;1.73;;;4.20;99.90;;;;;;5071661;28;20041;-67
2022/02/20 02:51:42;;;;;;;1.45;1.35;;;4.30;99.90;;;;;;5067397;28;20036;-67
2022/02/20 02:54:09;;;;;;;2.25;1.52;;;4.30;99.90;;;;;;5066131;28;20535;-67
2022/02/20 02:56:35;;;;;;;2.00;1.35;;;4.20;99.90;;;;;;5066970;28;20052;-67
2022/02/20 02:59:01;;;;;;;1.52;1.40;;;4.30;99.90;;;;;;5068683;28;20048;-67
2022/02/20 03:01:26;;;;;;;2.67;1.48;;;4.30;99.90;;;;;;5066808;28;20036;-67
2022/02/20 03:03:52;;;;;;;1.23;1.13;;;4.30;99.90;;;;;;5067903;28;20514;-67
2022/02/20 03:06:18;;;;;;;2.53;1.20;;;4.20;99.90;;;;;;5070285;28;20029;-67
2022/02/20 03:08:44;;;;;;;1.42;1.30;;;4.20;99.90;;;;;;5070850;28;20047;-67
2022/02/20 03:11:10;;;;;;;3.35;1.38;;;4.30;99.90;;;;;;5068452;28;20989;-67
2022/02/20 03:13:36;;;;;;;1.30;1.20;;;4.30;99.90;;;;;;5069476;28;20039;-67
2022/02/20 03:16:03;;;;;;;1.25;1.08;;;4.20;99.90;;;;;;5076653;28;20092;-67
2022/02/20 03:18:32;;;;;;;1.88;1.40;;;4.20;99.90;;;;;;5070776;28;20059;-67
2022/02/20 03:21:02;;;;;;;2.97;1.17;;;4.30;99.90;;;;;;5071784;28;20039;-67
2022/02/20 03:23:28;;;;;;;1.70;1.17;;;4.20;99.90;;;;;;5068441;28;20032;-67
2022/02/20 03:25:54;;;;;;;1.90;1.50;;;4.20;99.90;;;;;;5069613;28;20439;-67
2022/02/20 03:28:20;;;;;;;2.03;1.40;;;4.20;99.90;;;;;;5065599;28;20072;-67
2022/02/20 03:30:46;;;;;;;1.75;1.60;;;4.20;99.90;;;;;;5068166;28;20049;-67
2022/02/20 03:33:12;;;;;;;2.97;1.52;;;4.20;99.90;;;;;;5082756;28;20058;-67
2022/02/20 03:35:37;;;;;;;1.90;1.30;;;4.20;99.90;;;;;;5077141;28;20561;-67
2022/02/20 03:38:04;;;;;;;6.35;1.70;;;4.20;99.90;;;;;;5071036;28;20071;-67
2022/02/20 03:40:29;;;;;;;1.98;1.40;;;4.10;99.90;;;;;;5069017;28;20047;-67
2022/02/20 03:42:55;;;;;;;1.92;1.73;;;4.20;99.90;;;;;;5073258;28;20754;-67
2022/02/20 03:45:22;;;;;;;1.73;1.40;;;4.10;99.90;;;;;;5071578;28;20036;-67
2022/02/20 03:47:48;;;;;;;2.78;1.52;;;4.10;99.90;;;;;;5070289;28;20052;-67
2022/02/20 03:50:14;;;;;;;4.20;1.58;;;4.20;99.90;;;;;;5100212;28;20135;-67
2022/02/20 03:52:40;;;;;;;2.38;1.10;;;4.10;99.90;;;;;;5070831;28;20684;-67
2022/02/20 03:55:08;;;;;;;1.42;1.23;;;4.20;99.90;;;;;;5070520;28;20052;-67
2022/02/20 03:57:36;;;;;;;4.18;1.20;;;4.20;99.90;;;;;;5068075;28;20044;-67
2022/02/20 04:00:10;;;;;;;3.95;1.40;;;4.10;99.90;;;;;;5067555;28;20036;-67
2022/02/20 04:02:37;;;;;;;2.10;1.42;;;4.20;99.90;;;;;;5068609;28;20068;-67
2022/02/20 04:05:07;;;;;;;2.22;1.33;;;4.20;99.90;;;;;;5074520;28;20119;-68
2022/02/20 04:07:33;;;;;;;3.42;1.60;;;4.20;99.90;;;;;;5085315;28;20098;-67
2022/02/20 04:09:59;;;;;;;2.80;1.50;;;4.20;99.90;;;;;;5067670;28;20036;-67
2022/02/20 04:12:25;;;;;;;2.38;1.42;;;4.20;99.90;;;;;;5068522;28;20033;-67
2022/02/20 04:14:52;;;;;;;2.03;1.30;;;4.20;99.90;;;;;;5069102;28;20580;-68
2022/02/20 04:17:20;;;;;;;4.68;1.88;;;4.20;99.90;;;;;;5052550;28;20041;-67
2022/02/20 04:19:46;;;;;;;2.10;1.55;;;4.20;99.90;;;;;;5097647;28;20044;-67
2022/02/20 04:22:12;;;;;;;4.28;1.40;;;4.20;99.90;;;;;;5100436;28;20072;-67
2022/02/20 04:24:37;;;;;;;4.28;1.38;;;4.20;99.90;;;;;;5066981;28;20060;-67
2022/02/20 04:27:03;;;;;;;2.83;1.75;;;4.20;99.90;;;;;;5067707;28;20039;-67
2022/02/20 04:29:29;;;;;;;4.07;1.40;;;4.20;99.90;;;;;;5066421;28;20041;-67
2022/02/20 04:31:55;;;;;;;5.00;1.80;;;4.20;99.90;;;;;;5066186;28;20046;-67
2022/02/20 04:34:20;;;;;;;4.07;1.90;;;4.20;99.90;;;;;;5067487;28;20049;-67
2022/02/20 04:36:46;;;;;;;4.68;1.83;;;4.20;99.90;;;;;;5067202;28;20056;-68
2022/02/20 04:39:11;;;;;;;4.82;1.75;;;4.20;99.90;;;;;;5068828;28;20059;-67
2022/02/20 04:41:37;;;;;;;3.00;1.33;;;4.20;99.90;;;;;;5063490;28;20047;-67
2022/02/20 04:44:03;;;;;;;8.18;1.25;;;4.30;99.90;;;;;;5069928;28;20474;-67
2022/02/20 04:46:31;;;;;;;5.50;1.70;;;4.20;99.90;;;;;;5067458;28;20490;-67
2022/02/20 04:48:56;;;;;;;3.13;1.60;;;4.20;99.90;;;;;;5067414;28;20052;-67
2022/02/20 04:51:22;;;;;;;2.50;1.30;;;4.20;99.90;;;;;;5066216;28;20424;-67
2022/02/20 04:53:47;;;;;;;4.95;2.10;;;4.20;99.90;;;;;;5100763;28;20052;-67
2022/02/20 04:56:13;;;;;;;2.42;1.00;;;4.30;99.90;;;;;;5069456;28;20048;-67
2022/02/20 04:58:39;;;;;;;2.83;1.20;;;4.20;99.90;;;;;;5067004;28;20055;-67
2022/02/20 05:01:04;;;;;;;4.93;1.70;;;4.30;99.90;;;;;;5069054;28;20479;-67
2022/02/20 05:03:30;;;;;;;5.85;1.75;;;4.30;99.90;;;;;;5067643;28;20499;-67
2022/02/20 05:05:55;;;;;;;3.45;1.15;;;4.30;99.90;;;;;;5069240;28;20088;-68
2022/02/20 05:08:22;;;;;;;4.55;1.33;;;4.30;99.90;;;;;;5069495;28;20033;-67
2022/02/20 05:10:47;;;;;;;3.22;1.02;;;4.30;99.90;;;;;;5066356;28;20049;-67
2022/02/20 05:13:13;;;;;;;5.80;1.20;;;4.30;99.90;;;;;;5066359;28;20524;-67
2022/02/20 05:15:38;;;;;;;3.63;0.93;;;4.40;99.90;;;;;;5067463;28;20051;-67
2022/02/20 05:18:04;;;;;;;2.15;0.73;;;4.30;99.90;;;;;;5069012;28;20040;-67
2022/02/20 05:20:29;;;;;;;4.35;1.25;;;4.30;99.90;;;;;;5067800;28;20123;-67
2022/02/20 05:22:55;;;;;;;6.97;1.95;;;4.30;99.90;;;;;;5066595;28;20094;-67
2022/02/20 05:25:21;;;;;;;3.35;0.90;;;4.30;99.90;;;;;;5066585;28;20095;-67
2022/02/20 05:27:46;;;;;;;4.28;0.95;;;4.30;99.90;;;;;;5065387;28;20076;-67
2022/02/20 05:30:16;;;;;;;1.90;0.80;;;4.40;99.90;;;;;;5068854;28;20493;-67
2022/02/20 05:32:42;;;;;;;5.85;1.00;;;4.30;99.90;;;;;;5072856;28;20048;-67
2022/02/20 05:35:08;;;;;;;3.78;1.23;;;4.30;99.90;;;;;;5069686;28;20037;-67
2022/02/20 05:37:46;;;;;;;2.90;1.10;;;4.40;99.90;;;;;;5064423;28;20132;-67
2022/02/20 05:40:14;;;;;;;6.28;1.27;;;4.40;99.90;;;;;;5066888;28;20505;-67
2022/02/20 05:42:39;;;;;;;5.53;0.90;;;4.30;99.90;;;;;;5065531;28;20051;-67
2022/02/20 05:45:06;;;;;;;7.72;1.00;;;4.30;99.90;;;;;;5071269;28;20379;-67
2022/02/20 05:47:32;;;;;;;4.82;0.90;;;4.30;99.90;;;;;;5066876;28;20032;-67
2022/02/20 05:49:58;;;;;;;3.70;0.75;;;4.30;99.90;;;;;;5067889;28;20093;-67
2022/02/20 05:52:24;;;;;;;8.05;1.90;;;4.30;99.90;;;;;;5068669;28;20028;-67
2022/02/20 05:54:49;;;;;;;4.68;0.88;;;4.40;99.90;;;;;;5067011;28;20376;-67
2022/02/20 05:57:15;;;;;;;3.85;1.00;;;4.30;99.90;;;;;;5067076;28;20483;-67
2022/02/20 05:59:41;;;;;;;3.03;1.25;;;4.40;99.90;;;;;;5066294;28;20541;-67
2022/02/20 06:02:07;;;;;;;5.38;0.90;;;4.30;99.90;;;;;;5066462;28;20039;-67
2022/02/20 06:04:32;;;;;;;4.47;1.08;;;4.40;99.90;;;;;;5065447;28;20045;-67
2022/02/20 06:06:58;;;;;;;4.28;1.27;;;4.30;99.90;;;;;;5066446;28;20127;-67
2022/02/20 06:09:23;;;;;;;5.50;1.20;;;4.30;99.90;;;;;;5070388;28;20437;-67
2022/02/20 06:11:49;;;;;;;2.55;1.10;;;4.30;99.90;;;;;;5068531;28;20079;-67
2022/02/20 06:14:14;;;;;;;5.30;1.50;;;4.30;99.90;;;;;;5070024;28;20038;-67
2022/02/20 06:16:40;;;;;;;7.72;1.70;;;4.30;99.90;;;;;;5070844;28;20454;-67
2022/02/20 06:19:06;;;;;;;7.93;1.83;;;4.40;99.90;;;;;;5068601;28;20086;-67
2022/02/20 06:21:31;;;;;;;7.97;1.38;;;4.30;99.90;;;;;;5067954;28;20040;-67
2022/02/20 06:23:57;;;;;;;4.53;1.48;;;4.30;99.90;;;;;;5068746;28;20085;-67
2022/02/20 06:26:23;;;;;;;4.32;1.75;;;4.30;99.90;;;;;;5099959;28;20444;-67
2022/02/20 06:28:48;;;;;;;5.43;1.88;;;4.30;99.90;;;;;;5071182;28;20119;-67
2022/02/20 06:31:14;;;;;;;7.38;2.13;;;4.40;99.90;;;;;;5069562;28;20048;-67
2022/02/20 06:33:40;;;;;;;6.25;1.90;;;4.30;99.90;;;;;;5075947;28;20045;-68
2022/02/20 06:36:07;;;;;;;4.60;1.83;;;4.30;99.90;;;;;;5071135;28;20491;-67
2022/02/20 06:38:33;;;;;;;5.55;2.38;;;4.30;99.90;;;;;;5071936;28;20478;-67
2022/02/20 06:40:59;;;;;;;6.28;1.80;;;4.30;99.90;;;;;;5071179;28;20050;-67
2022/02/20 06:43:25;;;;;;;8.55;2.53;;;4.30;99.90;;;;;;5072521;28;20084;-67
2022/02/20 06:45:50;;;;;;;5.60;1.50;;;4.20;99.90;;;;;;5072826;28;20084;-67
2022/02/20 06:48:16;;;;;;;6.50;1.60;;;4.30;99.90;;;;;;5070673;28;20040;-67
2022/02/20 06:50:42;;;;;;;5.32;2.05;;;4.30;99.90;;;;;;5071625;28;20491;-67
2022/02/20 06:53:07;;;;;;;8.60;2.13;;;4.30;99.90;;;;;;5072335;28;20039;-67
2022/02/20 06:55:33;;;;;;;2.92;1.75;;;4.30;99.90;;;;;;5070656;28;20486;-67
2022/02/20 06:57:59;;;;;;;5.90;2.47;;;4.30;99.90;;;;;;5074025;28;20094;-67
2022/02/20 07:00:25;;;;;;;6.55;2.22;;;4.30;99.90;;;;;;5071431;28;20040;-67
2022/02/20 07:02:51;;;;;;;7.50;2.20;;;4.30;99.90;;;;;;5071301;28;20041;-68
2022/02/20 07:05:17;;;;;;;6.80;2.42;;;4.30;99.90;;;;;;5077684;28;20111;-67
2022/02/20 07:07:42;;;;;;;10.32;2.63;;;4.30;99.90;;;;;;5069436;28;20101;-67
2022/02/20 07:10:09;;;;;;;7.50;2.60;;;4.30;99.90;;;;;;5067252;28;20025;-67
2022/02/20 07:12:36;;;;;;;8.40;2.70;;;4.30;99.90;;;;;;5064929;28;20502;-68
2022/02/20 07:15:03;;;;;;;6.65;3.08;;;4.30;99.90;;;;;;5066049;28;20129;-67
2022/02/20 07:17:29;;;;;;;8.45;3.33;;;4.30;99.90;;;;;;5077611;28;20052;-67
2022/02/20 07:19:55;;;;;;;9.10;3.13;;;4.40;99.90;;;;;;5069885;28;20143;-67
2022/02/20 07:22:21;;;;;;;8.43;4.10;;;4.30;99.90;;;;;;5067428;28;20101;-67
2022/02/20 07:24:47;;;;;;;8.82;4.03;;;4.30;99.90;;;;;;5069162;28;20036;-67
2022/02/20 07:27:12;;;;;;;8.55;4.45;;;4.40;99.90;;;;;;5069915;28;20085;-67
2022/02/20 07:29:38;;;;;;;6.30;4.32;;;4.40;99.90;;;;;;5068015;28;20106;-67
2022/02/20 07:32:04;;;;;;;7.13;3.80;;;4.40;99.90;;;;;;5072236;28;20660;-67
2022/02/20 07:34:30;;;;;;;9.45;4.47;;;4.50;99.90;;;;;;5069119;28;20044;-67
2022/02/20 07:36:55;;;;;;;9.77;3.95;;;4.50;99.90;;;;;;5069943;28;20047;-67
2022/02/20 07:39:21;;;;;;;11.93;5.57;;;4.50;99.90;;;;;;5069460;28;20481;-67
2022/02/20 07:41:47;;;;;;;8.95;4.88;;;4.60;99.90;;;;;;5065691;28;20089;-67
2022/02/20 07:44:12;;;;;;;7.15;4.20;;;4.60;99.90;;;;;;5069236;28;20039;-67
2022/02/20 07:46:38;;;;;;;9.13;4.78;;;4.60;99.90;;;;;;5069148;28;20044;-67
2022/02/20 07:49:04;;;;;;;12.98;4.80;;;4.70;99.90;;;;;;5070368;28;20123;-67
2022/02/20 07:51:30;;;;;;;6.22;4.55;;;4.80;99.90;;;;;;5070128;28;20068;-67
2022/02/20 07:53:56;;;;;;;5.82;4.55;;;4.80;99.90;;;;;;5068040;28;20615;-67
2022/02/20 07:56:22;;;;;;;9.00;4.70;;;4.90;99.90;;;;;;5069252;28;20028;-67
2022/02/20 07:58:48;;;;;;;6.95;5.05;;;4.90;99.90;;;;;;5066645;28;20169;-67
2022/02/20 08:01:14;;;;;;;8.02;5.38;;;5.00;99.90;;;;;;5068134;28;20500;-67
2022/02/20 08:03:39;;;;;;;7.18;5.07;;;5.00;99.90;;;;;;5068625;28;20502;-68
2022/02/20 08:06:06;;;;;;;8.48;4.80;;;5.10;99.90;;;;;;5070287;28;20048;-67
2022/02/20 08:08:33;;;;;;;7.22;5.28;;;5.10;99.90;;;;;;5069259;28;20045;-68
2022/02/20 08:11:02;;;;;;;9.27;5.00;;;5.20;99.90;;;;;;5067489;28;20048;-68
2022/02/20 08:13:28;;;;;;;7.70;5.30;;;5.20;99.90;;;;;;5070213;28;20036;-67
2022/02/20 08:15:54;;;;;;;6.70;5.00;;;5.30;99.90;;;;;;5069082;28;20043;-67
2022/02/20 08:18:20;;;;;;;7.65;5.63;;;5.30;99.90;;;;;;5071107;28;20028;-67
2022/02/20 08:20:47;;;;;;;6.90;5.47;;;5.50;99.90;;;;;;5068608;28;20048;-67
2022/02/20 08:23:14;;;;;;;10.13;4.95;;;5.40;99.90;;;;;;5062775;28;20048;-67
2022/02/20 08:25:40;;;;;;;8.05;5.78;;;5.60;99.90;;;;;;5100225;28;20040;-67
2022/02/20 08:28:06;;;;;;;7.65;5.65;;;5.60;99.90;;;;;;5065610;28;20093;-67
2022/02/20 08:30:32;;;;;;;7.22;6.20;;;5.70;99.90;;;;;;5069398;28;20047;-67
2022/02/20 08:32:58;;;;;;;11.07;6.13;;;5.80;99.90;;;;;;5069247;28;20465;-67
2022/02/20 08:35:24;;;;;;;8.63;5.72;;;5.80;99.90;;;;;;5070019;28;20483;-67
2022/02/20 08:37:49;;;;;;;8.98;5.93;;;5.90;99.90;;;;;;5069172;28;20111;-68
2022/02/20 08:40:19;;;;;;;10.05;5.32;;;5.90;99.90;;;;;;5068809;28;20483;-68
2022/02/20 08:42:46;;;;;;;8.35;5.57;;;6.00;99.90;;;;;;5068520;28;20040;-68
2022/02/20 08:45:13;;;;;;;6.82;5.47;;;6.10;99.90;;;;;;5066599;28;20048;-68
2022/02/20 08:47:39;;;;;;;7.88;6.28;;;6.20;99.90;;;;;;5064504;28;20036;-68
2022/02/20 08:50:06;;;;;;;8.60;5.90;;;6.30;99.90;;;;;;5066628;28;20040;-67
2022/02/20 08:52:32;;;;;;;6.93;5.22;;;6.30;99.90;;;;;;5059947;28;20483;-68
2022/02/20 08:54:57;;;;;;;7.03;5.38;;;6.40;99.90;;;;;;5065843;28;20025;-68
2022/02/20 08:57:23;;;;;;;7.78;5.18;;;6.50;99.90;;;;;;5067355;28;20036;-68
2022/02/20 08:59:52;;;;;;;6.35;4.95;;;6.60;99.90;;;;;;5066181;28;20047;-68
2022/02/20 09:02:18;;;;;;;8.10;4.65;;;6.70;99.90;;;;;;5060988;28;20044;-68
2022/02/20 09:04:44;;;;;;;7.78;5.20;;;6.80;99.90;;;;;;5062599;28;20388;-68
2022/02/20 09:07:10;;;;;;;6.70;5.03;;;6.90;99.90;;;;;;5062359;28;20044;-69
2022/02/20 09:09:36;;;;;;;8.05;4.75;;;6.90;99.90;;;;;;5066138;28;20040;-68
2022/02/20 09:12:03;;;;;;;5.50;4.93;;;7.00;99.90;;;;;;5066664;28;20059;-69
2022/02/20 09:14:29;;;;;;;5.93;4.65;;;7.10;99.90;;;;;;5067662;28;20435;-68
2022/02/20 09:16:55;;;;;;;6.43;4.60;;;7.10;99.90;;;;;;5068390;28;20052;-68
2022/02/20 09:19:20;;;;;;;11.13;4.78;;;7.30;99.90;;;;;;5099641;28;20045;-69
2022/02/20 09:21:46;;;;;;;7.05;4.68;;;7.30;99.90;;;;;;5066466;28;20059;-68
2022/02/20 09:24:11;;;;;;;8.13;4.22;;;7.40;99.90;;;;;;5068632;28;20043;-68
2022/02/20 09:26:53;;;;;;;5.82;4.03;;;7.40;99.90;;;;;;5069111;28;20044;-69
2022/02/20 09:29:18;;;;;;;6.82;4.05;;;7.60;99.90;;;;;;5069551;28;20036;-69
2022/02/20 09:31:44;;;;;;;8.32;4.00;;;7.60;99.90;;;;;;5064267;28;20098;-69
2022/02/20 09:34:10;;;;;;;9.70;3.83;;;7.70;99.90;;;;;;5067717;28;20044;-69
2022/02/20 09:36:36;;;;;;;9.73;3.30;;;7.70;99.90;;;;;;5066323;28;20040;-69
2022/02/20 09:39:03;;;;;;;14.15;3.38;;;7.70;99.90;;;;;;5066984;28;20040;-68
2022/02/20 09:41:31;;;;;;;9.98;3.05;;;7.80;99.90;;;;;;5069221;28;20044;-69
2022/02/20 09:43:59;;;;;;;12.52;4.78;;;7.90;99.90;;;;;;5066814;28;20037;-69
2022/02/20 09:46:25;;;;;;;13.15;4.43;;;7.90;99.90;;;;;;5094567;28;20036;-69
2022/02/20 09:48:52;;;;;;;18.80;4.47;;;7.90;99.90;;;;;;5067869;28;20048;-69
2022/02/20 09:51:18;;;;;;;14.93;3.97;;;8.00;99.90;;;;;;5067690;28;20079;-69
2022/02/20 09:53:44;;;;;;;17.73;4.55;;;8.10;99.90;;;;;;5068599;28;20037;-68
2022/02/20 09:56:10;;;;;;;13.32;3.70;;;8.10;99.90;;;;;;5067567;28;20257;-68
2022/02/20 09:58:36;;;;;;;21.58;3.88;;;8.00;99.90;;;;;;5068545;28;20048;-68
2022/02/20 10:01:08;;;;;;;18.80;3.40;;;8.20;99.90;;;;;;5070792;28;20052;-69
2022/02/20 10:03:35;;;;;;;27.65;3.70;;;8.00;99.90;;;;;;5071073;28;20028;-69
2022/02/20 10:06:03;;;;;;;39.03;5.25;;;8.30;99.90;;;;;;5064568;28;20064;-69
2022/02/20 10:08:40;;;;;;;34.60;4.70;;;8.40;99.90;;;;;;5069659;28;20568;-69
2022/02/20 10:11:19;;;;;;;26.58;5.35;;;8.50;99.90;;;;;;5066735;28;20048;-69
2022/02/20 10:13:50;;;;;;;34.65;6.20;;;8.60;99.90;;;;;;5065237;28;20548;-69
2022/02/20 10:16:19;;;;;;;37.78;5.97;;;8.80;99.90;;;;;;5067617;28;20399;-69
2022/02/20 10:18:46;;;;;;;43.00;5.55;;;8.70;99.90;;;;;;5098294;28;20118;-69
2022/02/20 10:21:17;;;;;;;40.72;5.85;;;8.90;99.90;;;;;;5077903;28;20048;-69
2022/02/20 10:23:42;;;;;;;36.47;5.53;;;8.80;99.90;;;;;;5071107;28;20109;-69
2022/02/20 10:26:27;;;;;;;37.70;6.30;;;8.90;99.90;;;;;;5069812;28;20064;-69
2022/02/20 10:29:02;;;;;;;42.97;6.82;;;9.00;99.90;;;;;;5072279;28;20129;-69
2022/02/20 10:31:49;;;;;;;37.93;6.67;;;9.10;99.90;;;;;;5046769;28;20155;-70
2022/02/20 10:34:18;;;;;;;47.10;6.65;;;9.00;99.90;;;;;;5071038;28;20041;-69
2022/02/20 10:36:57;;;;;;;42.35;6.22;;;9.10;99.90;;;;;;5072677;28;20056;-69
2022/02/20 10:39:23;;;;;;;34.22;5.80;;;9.10;99.90;;;;;;5070259;28;20227;-69
2022/02/20 10:41:49;;;;;;;39.53;5.75;;;9.10;99.90;;;;;;5069783;28;20578;-69
2022/02/20 10:44:15;;;;;;;36.85;6.93;;;9.10;99.90;;;;;;5068486;28;20201;-69
2022/02/20 10:46:41;;;;;;;41.20;6.68;;;9.20;99.90;;;;;;5069566;28;20048;-69
2022/02/20 10:49:07;;;;;;;42.45;5.82;;;9.20;99.90;;;;;;5068737;28;20036;-69
2022/02/20 10:51:40;;;;;;;37.08;6.57;;;9.20;99.90;;;;;;5070718;28;20041;-69
2022/02/20 10:54:06;;;;;;;41.60;8.20;;;9.20;99.90;;;;;;5071134;28;20040;-70
2022/02/20 10:56:43;;;;;;;51.40;10.55;;;9.20;99.90;;;;;;5075916;28;20041;-69
2022/02/20 10:59:09;;;;;;;39.80;6.18;;;9.20;99.90;;;;;;5066097;28;20045;-69
2022/02/20 11:01:35;;;;;;;48.28;7.65;;;9.30;99.90;;;;;;5086003;28;20040;-69
2022/02/20 11:04:10;;;;;;;40.95;6.22;;;9.30;99.90;;;;;;5070819;28;20036;-69
2022/02/20 11:06:37;;;;;;;45.47;7.87;;;9.30;99.90;;;;;;5064130;28;20051;-69
2022/02/20 11:09:03;;;;;;;40.53;6.55;;;9.40;99.90;;;;;;5068000;28;20052;-69
2022/02/20 11:11:37;;;;;;;33.60;6.00;;;9.40;99.90;;;;;;5071472;28;20032;-70
2022/02/20 11:14:05;;;;;;;39.42;6.35;;;9.40;99.90;;;;;;5061867;28;20051;-69
2022/02/20 11:16:32;;;;;;;33.65;6.53;;;9.50;99.90;;;;;;5069743;28;20499;-69
2022/02/20 11:19:02;;;;;;;40.85;7.00;;;9.50;99.90;;;;;;5070579;28;20037;-69
2022/02/20 11:21:29;;;;;;;40.05;5.82;;;9.50;99.90;;;;;;5070832;28;20489;-69
2022/02/20 11:23:59;;;;;;;50.83;8.38;;;9.50;99.90;;;;;;5071552;28;20032;-69
2022/02/20 11:26:27;;;;;;;42.28;7.40;;;9.60;99.90;;;;;;5068668;28;20051;-69
2022/02/20 11:28:53;;;;;;;38.65;6.18;;;9.50;99.90;;;;;;5069102;28;20048;-69
2022/02/20 11:31:19;;;;;;;44.63;7.38;;;9.50;99.90;;;;;;5068663;28;20055;-69
2022/02/20 11:33:52;;;;;;;42.58;6.60;;;9.50;99.90;;;;;;5069105;28;20040;-69
2022/02/20 11:36:27;;;;;;;31.83;6.30;;;9.50;99.90;;;;;;5067121;28;20064;-69
2022/02/20 11:39:13;;;;;;;45.72;7.50;;;9.50;99.90;;;;;;5069825;28;20036;-69
2022/02/20 11:42:11;;;;;;;48.15;7.00;;;9.50;99.90;;;;;;5068838;28;20499;-69
2022/02/20 11:44:54;;;;;;;43.30;6.72;;;9.50;99.90;;;;;;5069644;28;20037;-69
2022/02/20 11:47:34;;;;;;;37.88;7.32;;;9.50;99.90;;;;;;5067303;28;20696;-69
2022/02/20 11:50:20;;;;;;;45.45;7.88;;;9.50;99.90;;;;;;5066336;28;20052;-69
2022/02/20 11:52:54;;;;;;;40.38;6.93;;;9.50;99.90;;;;;;5098964;28;20048;-69
2022/02/20 11:55:30;;;;;;;39.80;6.47;;;9.50;99.90;;;;;;5070701;28;20040;-69
2022/02/20 11:58:21;;;;;;;39.40;6.97;;;9.50;99.90;;;;;;5068849;28;20166;-69
2022/02/20 12:00:56;;;;;;;32.17;6.57;;;9.50;99.90;;;;;;5059684;28;20083;-69
2022/02/20 12:03:30;;;;;;;37.83;6.82;;;9.50;99.90;;;;;;5068258;28;20058;-69
2022/02/20 12:06:14;;;;;;;37.88;6.78;;;9.50;99.90;;;;;;5068568;28;20513;-69
2022/02/20 12:08:46;;;;;;;43.10;8.25;;;9.50;99.90;;;;;;5067861;28;20106;-70
2022/02/20 12:11:24;;;;;;;38.95;6.93;;;9.50;99.90;;;;;;5069580;28;20040;-69
2022/02/20 12:13:53;;;;;;;40.40;7.13;;;9.50;99.90;;;;;;5064269;28;20089;-69
2022/02/20 12:16:37;;;;;;;43.92;7.45;;;9.60;99.90;;;;;;5065875;28;20040;-69
2022/02/20 12:19:07;;;;;;;36.40;6.85;;;9.60;99.90;;;;;;5069539;28;20048;-69
2022/02/20 12:21:49;;;;;;;40.72;9.02;;;9.60;99.90;;;;;;5070469;28;20040;-69
2022/02/20 12:24:18;;;;;;;38.13;7.65;;;9.60;99.90;;;;;;5068384;28;20433;-69
2022/02/20 12:26:50;;;;;;;43.65;7.80;;;9.60;99.90;;;;;;5067903;28;20636;-70
2022/02/20 12:29:19;;;;;;;35.90;8.15;;;9.70;99.90;;;;;;5063691;28;20059;-69
2022/02/20 12:32:02;;;;;;;43.75;8.93;;;9.70;99.90;;;;;;5099472;28;20048;-69
2022/02/20 12:34:53;;;;;;;37.17;6.30;;;9.70;99.90;;;;;;5068579;28;20153;-69
2022/02/20 12:37:43;;;;;;;45.45;8.40;;;9.70;99.90;;;;;;5067262;28;20064;-69
2022/02/20 12:40:27;;;;;;;44.00;7.30;;;9.70;99.90;;;;;;5098390;28;20089;-69
2022/02/20 12:42:57;;;;;;;40.33;7.93;;;9.70;99.90;;;;;;5065929;28;20036;-69
2022/02/20 12:45:29;;;;;;;41.63;6.47;;;9.70;99.90;;;;;;5097216;28;20037;-69
2022/02/20 12:47:57;;;;;;;36.22;7.72;;;9.70;99.90;;;;;;5068330;28;20048;-69
2022/02/20 12:50:26;;;;;;;40.83;7.43;;;9.70;99.90;;;;;;5100317;28;20044;-69
2022/02/20 12:52:53;;;;;;;39.72;7.82;;;9.70;99.90;;;;;;5099533;28;20517;-69
2022/02/20 12:55:20;;;;;;;41.80;7.25;;;9.70;99.90;;;;;;5069365;28;20048;-70
2022/02/20 12:57:48;;;;;;;33.08;7.13;;;9.60;99.90;;;;;;5069684;28;20055;-69